Time;durP1;ratioP1;P1;durP2;ratioP2;P2;SDS_P1;SDS_P2;PMS_P1;PMS_P2;Temp;Humidity;BMP_temperature;BMP_pressure;BME280_temperature;BME280_humidity;BME280_pressure;Samples;Min_cycle;Max_cycle;Signal;HPM_P1;HPM_P2
2020/12/08 00:00:48;;;;;;;1999.90;999.90;;;;;;;;;;5027874;28;20029;-85
2020/12/08 00:03:14;;;;;;;1999.90;999.90;;;;;;;;;;5032796;28;20167;-85
2020/12/08 00:05:40;;;;;;;1999.90;999.90;;;;;;;;;;5047492;28;20074;-85
2020/12/08 00:08:07;;;;;;;1999.90;999.90;;;;;;;;;;5046245;28;20018;-85
2020/12/08 00:10:33;;;;;;;1999.90;999.90;;;;;;;;;;5024997;28;20047;-85
2020/12/08 00:12:59;;;;;;;1999.90;999.90;;;;;;;;;;5051638;28;20473;-85
2020/12/08 00:15:26;;;;;;;1999.90;999.90;;;;;;;;;;5045929;28;20036;-85
2020/12/08 00:17:52;;;;;;;1999.90;999.90;;;;;;;;;;5048033;28;20477;-85
2020/12/08 00:20:19;;;;;;;1999.90;999.90;;;;;;;;;;5022481;28;20401;-85
2020/12/08 00:22:45;;;;;;;1999.90;999.90;;;;;;;;;;5040485;28;20082;-83
2020/12/08 00:25:11;;;;;;;1999.90;999.90;;;;;;;;;;5047341;28;20068;-83
2020/12/08 00:27:37;;;;;;;1999.90;999.90;;;;;;;;;;5049512;28;20075;-83
2020/12/08 00:30:08;;;;;;;1999.90;999.90;;;;;;;;;;5036480;28;20470;-84
2020/12/08 00:32:36;;;;;;;1999.90;999.90;;;;;;;;;;5041567;28;20013;-84
2020/12/08 00:35:02;;;;;;;1999.90;999.90;;;;;;;;;;5045141;28;20036;-83
2020/12/08 00:37:28;;;;;;;1999.90;999.90;;;;;;;;;;5045316;28;20029;-83
2020/12/08 00:39:54;;;;;;;1999.90;999.90;;;;;;;;;;5044089;28;20555;-84
2020/12/08 00:42:20;;;;;;;1999.90;999.90;;;;;;;;;;5051301;28;20079;-83
2020/12/08 00:44:46;;;;;;;1999.90;999.90;;;;;;;;;;5039633;28;20033;-83
2020/12/08 00:47:12;;;;;;;1999.90;999.90;;;;;;;;;;5051857;28;20505;-84
2020/12/08 00:49:38;;;;;;;1999.90;999.90;;;;;;;;;;5043145;28;20134;-84
2020/12/08 00:52:04;;;;;;;1999.90;999.90;;;;;;;;;;5044516;28;20039;-83
2020/12/08 00:54:30;;;;;;;1999.90;999.90;;;;;;;;;;5041930;28;20143;-83
2020/12/08 00:56:56;;;;;;;1999.90;999.90;;;;;;;;;;5045818;28;20405;-83
2020/12/08 00:59:22;;;;;;;1999.90;999.90;;;;;;;;;;5035241;28;20021;-83
2020/12/08 01:01:48;;;;;;;1999.90;999.90;;;;;;;;;;5042899;28;20026;-84
2020/12/08 01:04:14;;;;;;;1999.90;999.90;;;;;;;;;;5037122;28;20043;-84
2020/12/08 01:06:40;;;;;;;1999.90;999.90;;;;;;;;;;5051576;28;20074;-83
2020/12/08 01:09:07;;;;;;;1999.90;999.90;;;;;;;;;;5051354;28;20033;-84
2020/12/08 01:11:42;;;;;;;1999.90;999.90;;;;;;;;;;5047220;28;20025;-84
2020/12/08 01:14:09;;;;;;;1999.90;999.90;;;;;;;;;;5038608;28;20485;-84
2020/12/08 01:16:35;;;;;;;1999.90;999.90;;;;;;;;;;5032397;28;20143;-84
2020/12/08 01:19:01;;;;;;;1999.90;999.90;;;;;;;;;;5041380;28;20025;-84
2020/12/08 01:21:27;;;;;;;1999.90;999.90;;;;;;;;;;5049197;28;20228;-83
2020/12/08 01:23:53;;;;;;;1999.90;999.90;;;;;;;;;;5036053;28;20029;-83
2020/12/08 01:26:20;;;;;;;1999.90;999.90;;;;;;;;;;5049088;28;20033;-84
2020/12/08 01:28:46;;;;;;;1999.90;999.90;;;;;;;;;;5047877;28;20041;-84
2020/12/08 01:31:12;;;;;;;1999.90;999.90;;;;;;;;;;5051406;28;20492;-84
2020/12/08 01:33:38;;;;;;;1999.90;999.90;;;;;;;;;;5048158;28;20515;-84
2020/12/08 01:36:04;;;;;;;1999.90;999.90;;;;;;;;;;5048252;28;20082;-84
2020/12/08 01:38:30;;;;;;;1999.90;999.90;;;;;;;;;;5033575;28;20021;-84
2020/12/08 01:40:56;;;;;;;1999.90;999.90;;;;;;;;;;5048895;28;20061;-83
2020/12/08 01:43:23;;;;;;;1999.90;999.90;;;;;;;;;;5034345;28;20033;-83
2020/12/08 01:45:49;;;;;;;1999.90;999.90;;;;;;;;;;5049299;28;20100;-84
2020/12/08 01:48:15;;;;;;;1999.90;999.90;;;;;;;;;;5049797;28;20028;-84
2020/12/08 01:50:42;;;;;;;1999.90;999.90;;;;;;;;;;5048957;28;20037;-84
2020/12/08 01:53:10;;;;;;;1999.90;999.90;;;;;;;;;;5038133;28;20194;-83
2020/12/08 01:55:38;;;;;;;1999.90;999.90;;;;;;;;;;5029415;28;20024;-84
2020/12/08 01:58:14;;;;;;;1999.90;999.90;;;;;;;;;;5037522;28;20059;-83
2020/12/08 02:00:40;;;;;;;;;;;;;;;;;;5050342;28;20108;-84
2020/12/08 02:03:06;;;;;;;1999.90;999.90;;;;;;;;;;5048978;28;19995;-84
2020/12/08 02:05:32;;;;;;;1999.90;999.90;;;;;;;;;;5046094;28;20063;-84
2020/12/08 02:07:58;;;;;;;1999.90;999.90;;;;;;;;;;5036481;28;20025;-83
2020/12/08 02:10:24;;;;;;;1999.90;999.90;;;;;;;;;;5045094;28;20041;-83
2020/12/08 02:12:50;;;;;;;1999.90;999.90;;;;;;;;;;5040806;28;20025;-84
2020/12/08 02:15:16;;;;;;;1999.90;999.90;;;;;;;;;;5038161;28;20037;-84
2020/12/08 02:17:42;;;;;;;1999.90;999.90;;;;;;;;;;5050708;28;20061;-84
2020/12/08 02:20:08;;;;;;;1999.90;999.90;;;;;;;;;;5048879;28;20029;-84
2020/12/08 02:22:34;;;;;;;1999.90;999.90;;;;;;;;;;5022349;28;20078;-84
2020/12/08 02:25:01;;;;;;;1999.90;999.90;;;;;;;;;;5026304;28;20068;-85
2020/12/08 02:27:27;;;;;;;1999.90;999.90;;;;;;;;;;5049841;28;20032;-84
2020/12/08 02:29:53;;;;;;;1999.90;999.90;;;;;;;;;;5044785;28;20056;-84
2020/12/08 02:32:19;;;;;;;1999.90;999.90;;;;;;;;;;5042393;28;20571;-84
2020/12/08 02:34:45;;;;;;;1999.90;999.90;;;;;;;;;;5036135;28;20029;-84
2020/12/08 02:37:11;;;;;;;1999.90;999.90;;;;;;;;;;5035543;28;20032;-84
2020/12/08 02:39:37;;;;;;;1999.90;999.90;;;;;;;;;;5027876;28;20025;-84
2020/12/08 02:42:03;;;;;;;1999.90;999.90;;;;;;;;;;5039371;28;20144;-84
2020/12/08 02:44:29;;;;;;;1999.90;999.90;;;;;;;;;;5025664;28;20513;-84
2020/12/08 02:46:55;;;;;;;1999.90;999.90;;;;;;;;;;5047915;28;20052;-84
2020/12/08 02:49:21;;;;;;;1999.90;999.90;;;;;;;;;;5044899;28;20068;-84
2020/12/08 02:51:47;;;;;;;1999.90;999.90;;;;;;;;;;5034645;28;20104;-84
2020/12/08 02:54:13;;;;;;;1999.90;999.90;;;;;;;;;;5050609;28;20466;-84
2020/12/08 02:56:39;;;;;;;1999.90;999.90;;;;;;;;;;5045388;28;20017;-83
2020/12/08 02:59:05;;;;;;;1999.90;999.90;;;;;;;;;;5054118;28;20108;-84
2020/12/08 03:01:31;;;;;;;1999.90;999.90;;;;;;;;;;5054180;28;20025;-84
2020/12/08 03:03:57;;;;;;;1999.90;999.90;;;;;;;;;;5036381;28;20025;-84
2020/12/08 03:06:23;;;;;;;1999.90;999.90;;;;;;;;;;5051192;28;20401;-84
2020/12/08 03:08:49;;;;;;;1999.90;999.90;;;;;;;;;;5051343;28;20035;-84
2020/12/08 03:11:16;;;;;;;1999.90;999.90;;;;;;;;;;5037669;28;20154;-83
2020/12/08 03:13:42;;;;;;;1999.90;999.90;;;;;;;;;;5053483;28;20017;-83
2020/12/08 03:16:08;;;;;;;1999.90;999.90;;;;;;;;;;5052769;28;20054;-84
2020/12/08 03:18:34;;;;;;;1999.90;999.90;;;;;;;;;;5042245;28;20020;-83
2020/12/08 03:21:00;;;;;;;1999.90;999.90;;;;;;;;;;5047702;28;20025;-83
2020/12/08 03:23:26;;;;;;;1999.90;999.90;;;;;;;;;;5050829;28;20401;-83
2020/12/08 03:25:52;;;;;;;1999.90;999.90;;;;;;;;;;5053558;28;20042;-83
2020/12/08 03:28:18;;;;;;;1999.90;999.90;;;;;;;;;;5046370;28;20029;-83
2020/12/08 03:30:44;;;;;;;1999.90;999.90;;;;;;;;;;5044514;28;20049;-84
2020/12/08 03:33:10;;;;;;;1999.90;999.90;;;;;;;;;;5053216;28;20029;-83
2020/12/08 03:35:36;;;;;;;1999.90;999.90;;;;;;;;;;5051211;28;20158;-85
2020/12/08 03:38:02;;;;;;;1999.90;999.90;;;;;;;;;;5046531;28;20022;-84
2020/12/08 03:40:28;;;;;;;1999.90;999.90;;;;;;;;;;5015510;28;20034;-83
2020/12/08 03:42:54;;;;;;;1999.90;999.90;;;;;;;;;;5043684;28;20025;-83
2020/12/08 03:45:20;;;;;;;1999.90;999.90;;;;;;;;;;5048425;28;20686;-82
2020/12/08 03:47:46;;;;;;;1999.90;999.90;;;;;;;;;;5036994;28;20028;-82
2020/12/08 03:50:12;;;;;;;1999.90;999.90;;;;;;;;;;5052402;28;20044;-82
2020/12/08 03:52:38;;;;;;;1999.90;999.90;;;;;;;;;;5049735;28;20431;-83
2020/12/08 03:55:05;;;;;;;1999.90;999.90;;;;;;;;;;5049184;28;20029;-81
2020/12/08 03:57:31;;;;;;;1999.90;999.90;;;;;;;;;;5018483;28;20080;-82
2020/12/08 03:59:57;;;;;;;1999.90;999.90;;;;;;;;;;5052758;28;20100;-83
2020/12/08 04:02:23;;;;;;;1999.90;999.90;;;;;;;;;;5048739;28;20104;-83
2020/12/08 04:04:50;;;;;;;1999.90;999.90;;;;;;;;;;5050174;28;20071;-83
2020/12/08 04:07:16;;;;;;;1999.90;999.90;;;;;;;;;;5047318;28;20326;-83
2020/12/08 04:09:42;;;;;;;1999.90;999.90;;;;;;;;;;5036169;28;20071;-82
2020/12/08 04:12:08;;;;;;;1999.90;999.90;;;;;;;;;;5052610;28;20048;-83
2020/12/08 04:14:34;;;;;;;1999.90;999.90;;;;;;;;;;5047010;28;20298;-83
2020/12/08 04:17:01;;;;;;;1999.90;999.90;;;;;;;;;;5038517;28;20526;-82
2020/12/08 04:19:27;;;;;;;1999.90;999.90;;;;;;;;;;5049988;28;20113;-82
2020/12/08 04:21:58;;;;;;;1999.90;999.90;;;;;;;;;;5049050;28;20112;-82
2020/12/08 04:24:24;;;;;;;1999.90;999.90;;;;;;;;;;5051528;28;20520;-82
2020/12/08 04:26:50;;;;;;;1999.90;999.90;;;;;;;;;;5051085;28;20048;-82
2020/12/08 04:29:16;;;;;;;1999.90;999.90;;;;;;;;;;5036322;28;20060;-82
2020/12/08 04:31:42;;;;;;;1999.90;999.90;;;;;;;;;;5051217;28;20467;-83
2020/12/08 04:34:08;;;;;;;1999.90;999.90;;;;;;;;;;5047469;28;20060;-82
2020/12/08 04:36:34;;;;;;;1999.90;999.90;;;;;;;;;;5045940;28;20029;-82
2020/12/08 04:39:00;;;;;;;1999.90;999.90;;;;;;;;;;5052612;28;20063;-83
2020/12/08 04:41:26;;;;;;;1999.90;999.90;;;;;;;;;;5050054;28;20024;-82
2020/12/08 04:43:52;;;;;;;1999.90;999.90;;;;;;;;;;5049986;28;20114;-83
2020/12/08 04:46:19;;;;;;;1999.90;999.90;;;;;;;;;;5043986;28;20063;-82
2020/12/08 04:48:45;;;;;;;1999.90;999.90;;;;;;;;;;5018574;28;20846;-83
2020/12/08 04:51:11;;;;;;;1999.90;999.90;;;;;;;;;;5038336;28;20028;-83
2020/12/08 04:53:37;;;;;;;1999.90;999.90;;;;;;;;;;5035636;28;20025;-82
2020/12/08 04:56:03;;;;;;;1999.90;999.90;;;;;;;;;;5046272;28;20496;-82
2020/12/08 04:58:29;;;;;;;1999.90;999.90;;;;;;;;;;5049760;28;20108;-83
2020/12/08 05:00:55;;;;;;;1999.90;999.90;;;;;;;;;;5048034;28;20048;-82
2020/12/08 05:03:23;;;;;;;1999.90;999.90;;;;;;;;;;5049407;28;20121;-82
2020/12/08 05:05:49;;;;;;;1999.90;999.90;;;;;;;;;;5035719;28;20017;-82
2020/12/08 05:08:15;;;;;;;1999.90;999.90;;;;;;;;;;5046254;28;20048;-82
2020/12/08 05:10:41;;;;;;;1999.90;999.90;;;;;;;;;;5033476;28;20060;-82
2020/12/08 05:13:08;;;;;;;1999.90;999.90;;;;;;;;;;5035925;28;20035;-83
2020/12/08 05:15:34;;;;;;;1999.90;999.90;;;;;;;;;;5050248;28;20108;-83
2020/12/08 05:18:11;;;;;;;1999.90;999.90;;;;;;;;;;5049819;28;20017;-83
2020/12/08 05:20:38;;;;;;;1999.90;999.90;;;;;;;;;;5050104;28;20029;-83
2020/12/08 05:23:04;;;;;;;1999.90;999.90;;;;;;;;;;5049047;28;20025;-83
2020/12/08 05:25:31;;;;;;;1999.90;999.90;;;;;;;;;;5046819;28;20025;-83
2020/12/08 05:27:58;;;;;;;1999.90;999.90;;;;;;;;;;5049145;28;20025;-82
2020/12/08 05:30:25;;;;;;;1999.90;999.90;;;;;;;;;;5031259;28;20099;-82
2020/12/08 05:32:51;;;;;;;1999.90;999.90;;;;;;;;;;5048309;28;20377;-83
2020/12/08 05:35:21;;;;;;;1999.90;999.90;;;;;;;;;;5049390;28;20037;-83
2020/12/08 05:37:48;;;;;;;1999.90;999.90;;;;;;;;;;5040554;28;20013;-82
2020/12/08 05:40:19;;;;;;;1999.90;999.90;;;;;;;;;;5041804;28;20049;-82
2020/12/08 05:42:46;;;;;;;1999.90;999.90;;;;;;;;;;5042764;28;20082;-81
2020/12/08 05:45:13;;;;;;;1999.90;999.90;;;;;;;;;;5051218;28;20028;-83
2020/12/08 05:47:43;;;;;;;1999.90;999.90;;;;;;;;;;5050992;28;20075;-82
2020/12/08 05:50:09;;;;;;;1999.90;999.90;;;;;;;;;;5043066;28;20041;-82
2020/12/08 05:52:36;;;;;;;1999.90;999.90;;;;;;;;;;5042031;28;20018;-81
2020/12/08 05:55:09;;;;;;;1999.90;999.90;;;;;;;;;;5051189;28;20021;-81
2020/12/08 05:57:35;;;;;;;1999.90;999.90;;;;;;;;;;5051030;28;20444;-81
2020/12/08 06:00:01;;;;;;;1999.90;999.90;;;;;;;;;;5044878;28;20030;-81
2020/12/08 06:02:33;;;;;;;1999.90;999.90;;;;;;;;;;5053460;28;20024;-82
2020/12/08 06:04:59;;;;;;;1999.90;999.90;;;;;;;;;;5033417;28;20025;-82
2020/12/08 06:07:29;;;;;;;1999.90;999.90;;;;;;;;;;5050836;28;20096;-82
2020/12/08 06:10:04;;;;;;;1999.90;999.90;;;;;;;;;;5050079;28;20486;-81
2020/12/08 06:12:30;;;;;;;1999.90;999.90;;;;;;;;;;5050862;28;20029;-82
2020/12/08 06:14:56;;;;;;;1999.90;999.90;;;;;;;;;;5047454;28;20040;-82
2020/12/08 06:17:22;;;;;;;1999.90;999.90;;;;;;;;;;5050474;28;20103;-82
2020/12/08 06:19:48;;;;;;;1999.90;999.90;;;;;;;;;;5045507;28;20030;-82
2020/12/08 06:22:15;;;;;;;1999.90;999.90;;;;;;;;;;5038520;28;20071;-83
2020/12/08 06:24:51;;;;;;;1999.90;999.90;;;;;;;;;;5046670;28;20053;-82
2020/12/08 06:27:23;;;;;;;1999.90;999.90;;;;;;;;;;5043105;28;20397;-82
2020/12/08 06:29:56;;;;;;;1999.90;999.90;;;;;;;;;;5027504;28;20075;-81
2020/12/08 06:32:31;;;;;;;1999.90;999.90;;;;;;;;;;5044873;28;20018;-82
2020/12/08 06:35:08;;;;;;;1999.90;999.90;;;;;;;;;;5046789;28;20033;-83
2020/12/08 06:37:34;;;;;;;1999.90;999.90;;;;;;;;;;5048452;28;20028;-82
2020/12/08 06:40:10;;;;;;;1999.90;999.90;;;;;;;;;;5054083;28;20373;-79
2020/12/08 06:42:37;;;;;;;1999.90;999.90;;;;;;;;;;5042565;28;20560;-80
2020/12/08 06:45:07;;;;;;;1999.90;999.90;;;;;;;;;;5050420;28;20025;-80
2020/12/08 06:47:33;;;;;;;1999.90;999.90;;;;;;;;;;5052357;28;20028;-79
2020/12/08 06:49:59;;;;;;;1999.90;999.90;;;;;;;;;;5053354;28;20047;-79
2020/12/08 06:52:25;;;;;;;1999.90;999.90;;;;;;;;;;5049192;28;20045;-79
2020/12/08 06:55:00;;;;;;;1999.90;999.90;;;;;;;;;;5041013;28;20108;-79
2020/12/08 06:57:26;;;;;;;1999.90;999.90;;;;;;;;;;5051246;28;20136;-83
2020/12/08 07:00:09;;;;;;;1999.90;999.90;;;;;;;;;;5047428;28;20083;-82
2020/12/08 07:02:49;;;;;;;1999.90;999.90;;;;;;;;;;5052695;28;20021;-81
2020/12/08 07:05:16;;;;;;;1999.90;999.90;;;;;;;;;;5045235;28;20078;-82
2020/12/08 07:07:43;;;;;;;1999.90;999.90;;;;;;;;;;5052542;28;20017;-80
2020/12/08 07:10:09;;;;;;;1999.90;999.90;;;;;;;;;;5045706;28;20037;-82
2020/12/08 07:12:42;;;;;;;1999.90;999.90;;;;;;;;;;5042681;28;20017;-83
2020/12/08 07:15:11;;;;;;;1999.90;999.90;;;;;;;;;;5048381;28;20039;-81
2020/12/08 07:17:37;;;;;;;1999.90;999.90;;;;;;;;;;5052904;28;20158;-82
2020/12/08 07:20:05;;;;;;;1999.90;999.90;;;;;;;;;;5053384;28;20108;-82
2020/12/08 07:22:40;;;;;;;1999.90;999.90;;;;;;;;;;5050574;28;20355;-82
2020/12/08 07:25:07;;;;;;;1999.90;999.90;;;;;;;;;;5038703;28;20029;-82
2020/12/08 07:27:33;;;;;;;1999.90;999.90;;;;;;;;;;5050331;28;20533;-82
2020/12/08 07:29:59;;;;;;;1999.90;999.90;;;;;;;;;;5051150;28;20053;-82
2020/12/08 07:32:29;;;;;;;1999.90;999.90;;;;;;;;;;5040681;28;20072;-82
2020/12/08 07:34:55;;;;;;;1999.90;999.90;;;;;;;;;;5034097;28;20033;-82
2020/12/08 07:37:21;;;;;;;1999.90;999.90;;;;;;;;;;5030037;28;20124;-82
2020/12/08 07:39:47;;;;;;;1999.90;999.90;;;;;;;;;;5046557;28;20025;-82
2020/12/08 07:42:13;;;;;;;1999.90;999.90;;;;;;;;;;5042447;28;20074;-82
2020/12/08 07:44:39;;;;;;;1999.90;999.90;;;;;;;;;;5065769;28;20048;-83
2020/12/08 07:47:12;;;;;;;1999.90;999.90;;;;;;;;;;5027992;28;20826;-83
2020/12/08 07:49:40;;;;;;;1999.90;999.90;;;;;;;;;;5061922;28;20032;-85
2020/12/08 07:52:06;;;;;;;1999.90;999.90;;;;;;;;;;5043503;28;20462;-84
2020/12/08 07:54:32;;;;;;;1999.90;999.90;;;;;;;;;;5059210;28;20021;-84
2020/12/08 07:56:59;;;;;;;1999.90;999.90;;;;;;;;;;5050608;28;20033;-84
2020/12/08 07:59:25;;;;;;;1999.90;999.90;;;;;;;;;;5055507;28;20032;-86
2020/12/08 08:01:51;;;;;;;1999.90;999.90;;;;;;;;;;5038274;28;20072;-85
2020/12/08 08:04:18;;;;;;;1999.90;999.90;;;;;;;;;;5040508;28;20099;-80
2020/12/08 08:06:46;;;;;;;1999.90;999.90;;;;;;;;;;5053744;28;20132;-86
2020/12/08 08:09:12;;;;;;;1999.90;999.90;;;;;;;;;;5052749;28;20036;-87
2020/12/08 08:11:38;;;;;;;1999.90;999.90;;;;;;;;;;5044610;28;20442;-88
2020/12/08 08:14:04;;;;;;;1999.90;999.90;;;;;;;;;;5033917;28;20496;-88
2020/12/08 08:16:31;;;;;;;1999.90;999.90;;;;;;;;;;5034715;28;20017;-88
2020/12/08 08:18:57;;;;;;;1999.90;999.90;;;;;;;;;;5052169;28;20025;-86
2020/12/08 08:21:23;;;;;;;1999.90;999.90;;;;;;;;;;5052680;28;20021;-88
2020/12/08 08:23:49;;;;;;;1999.90;999.90;;;;;;;;;;5033883;28;20509;-88
2020/12/08 08:26:16;;;;;;;1999.90;999.90;;;;;;;;;;5057376;28;20384;-87
2020/12/08 08:28:42;;;;;;;1999.90;999.90;;;;;;;;;;5049486;28;20032;-86
2020/12/08 08:31:08;;;;;;;1999.90;999.90;;;;;;;;;;5031633;28;20444;-87
2020/12/08 08:33:37;;;;;;;1999.90;999.90;;;;;;;;;;5051619;28;20017;-86
2020/12/08 08:36:03;;;;;;;1999.90;999.90;;;;;;;;;;5049907;28;20031;-87
2020/12/08 08:38:29;;;;;;;1999.90;999.90;;;;;;;;;;5050501;28;20400;-86
2020/12/08 08:40:57;;;;;;;1999.90;999.90;;;;;;;;;;5026429;28;20504;-87
2020/12/08 08:43:23;;;;;;;1999.90;999.90;;;;;;;;;;5051247;28;20116;-86
2020/12/08 08:45:49;;;;;;;1999.90;999.90;;;;;;;;;;5034316;28;20465;-88
2020/12/08 08:48:15;;;;;;;1999.90;999.90;;;;;;;;;;5051170;28;20045;-86
2020/12/08 08:50:41;;;;;;;1999.90;999.90;;;;;;;;;;5036560;28;20044;-86
2020/12/08 08:53:07;;;;;;;1999.90;999.90;;;;;;;;;;5050165;28;20082;-87
2020/12/08 08:55:33;;;;;;;1999.90;999.90;;;;;;;;;;5049860;28;20025;-86
2020/12/08 08:57:59;;;;;;;1999.90;999.90;;;;;;;;;;5054206;28;20378;-86
2020/12/08 09:00:25;;;;;;;1999.90;999.90;;;;;;;;;;5052416;28;20021;-87
2020/12/08 09:02:51;;;;;;;1999.90;999.90;;;;;;;;;;5033103;28;20040;-85
2020/12/08 09:05:17;;;;;;;1999.90;999.90;;;;;;;;;;5046637;28;20021;-87
2020/12/08 09:07:43;;;;;;;1999.90;999.90;;;;;;;;;;5049689;28;20052;-86
2020/12/08 09:10:09;;;;;;;1999.90;999.90;;;;;;;;;;5048280;28;20549;-84
2020/12/08 09:12:35;;;;;;;1999.90;999.90;;;;;;;;;;5048249;28;20017;-85
2020/12/08 09:15:04;;;;;;;1999.90;999.90;;;;;;;;;;5053527;28;20038;-85
2020/12/08 09:17:30;;;;;;;1999.90;999.90;;;;;;;;;;5049962;28;20021;-86
2020/12/08 09:19:56;;;;;;;1999.90;999.90;;;;;;;;;;5050989;28;20031;-85
2020/12/08 09:22:25;;;;;;;1999.90;999.90;;;;;;;;;;5045436;28;20032;-87
2020/12/08 09:24:51;;;;;;;1999.90;999.90;;;;;;;;;;5034903;28;20074;-85
2020/12/08 09:27:17;;;;;;;1999.90;999.90;;;;;;;;;;5042043;28;20024;-82
2020/12/08 09:29:43;;;;;;;1999.90;999.90;;;;;;;;;;5035118;28;20042;-81
2020/12/08 09:32:09;;;;;;;1999.90;999.90;;;;;;;;;;5032497;28;20032;-84
2020/12/08 09:34:36;;;;;;;1999.90;999.90;;;;;;;;;;5056196;28;20033;-81
2020/12/08 09:37:02;;;;;;;1999.90;999.90;;;;;;;;;;5051533;28;20032;-81
2020/12/08 09:39:28;;;;;;;1999.90;999.90;;;;;;;;;;5034510;28;20033;-82
2020/12/08 09:41:54;;;;;;;1999.90;999.90;;;;;;;;;;5050062;28;20020;-82
2020/12/08 09:44:21;;;;;;;1999.90;999.90;;;;;;;;;;5042303;28;20033;-81
2020/12/08 09:46:47;;;;;;;1999.90;999.90;;;;;;;;;;5049764;28;20029;-82
2020/12/08 09:49:13;;;;;;;1999.90;999.90;;;;;;;;;;5051444;28;20567;-81
2020/12/08 09:51:40;;;;;;;1999.90;999.90;;;;;;;;;;5047622;28;20456;-81
2020/12/08 09:54:06;;;;;;;1999.90;999.90;;;;;;;;;;5027549;28;20477;-81
2020/12/08 09:56:32;;;;;;;1999.90;999.90;;;;;;;;;;5050078;28;20075;-81
2020/12/08 09:58:59;;;;;;;1999.90;999.90;;;;;;;;;;5046784;28;20032;-81
2020/12/08 10:01:29;;;;;;;1999.90;999.90;;;;;;;;;;5049744;28;20043;-81
2020/12/08 10:03:55;;;;;;;1999.90;999.90;;;;;;;;;;5048371;28;20048;-81
2020/12/08 10:06:21;;;;;;;1999.90;999.90;;;;;;;;;;5053865;28;20036;-81
2020/12/08 10:08:48;;;;;;;1999.90;999.90;;;;;;;;;;5052570;28;20024;-80
2020/12/08 10:11:14;;;;;;;1999.90;999.90;;;;;;;;;;5051531;28;20106;-81
2020/12/08 10:13:40;;;;;;;1999.90;999.90;;;;;;;;;;5053251;28;20427;-81
2020/12/08 10:16:07;;;;;;;1999.90;999.90;;;;;;;;;;5053029;28;20404;-80
2020/12/08 10:18:33;;;;;;;1999.90;999.90;;;;;;;;;;5053246;28;20386;-80
2020/12/08 10:20:59;;;;;;;1999.90;999.90;;;;;;;;;;5046536;28;20028;-81
2020/12/08 10:23:25;;;;;;;1999.90;999.90;;;;;;;;;;5054171;28;20021;-81
2020/12/08 10:25:51;;;;;;;1999.90;999.90;;;;;;;;;;5052183;28;20024;-81
2020/12/08 10:28:17;;;;;;;1999.90;999.90;;;;;;;;;;5050790;28;20492;-81
2020/12/08 10:30:43;;;;;;;1999.90;999.90;;;;;;;;;;5053682;28;20524;-81
2020/12/08 10:33:09;;;;;;;1999.90;999.90;;;;;;;;;;5050214;28;20021;-81
2020/12/08 10:35:36;;;;;;;1999.90;999.90;;;;;;;;;;5031259;28;20370;-81
2020/12/08 10:38:02;;;;;;;1999.90;999.90;;;;;;;;;;5051829;28;20499;-81
2020/12/08 10:40:28;;;;;;;1999.90;999.90;;;;;;;;;;5033917;28;20381;-81
2020/12/08 10:42:54;;;;;;;1999.90;999.90;;;;;;;;;;5050428;28;20033;-79
2020/12/08 10:45:20;;;;;;;1999.90;999.90;;;;;;;;;;5051725;28;20024;-81
2020/12/08 10:47:46;;;;;;;1999.90;999.90;;;;;;;;;;5054531;28;20496;-82
2020/12/08 10:50:12;;;;;;;1999.90;999.90;;;;;;;;;;5054223;28;20045;-81
2020/12/08 10:52:38;;;;;;;1999.90;999.90;;;;;;;;;;5053313;28;20503;-82
2020/12/08 10:55:04;;;;;;;1999.90;999.90;;;;;;;;;;5054856;28;20052;-85
2020/12/08 10:57:30;;;;;;;1999.90;999.90;;;;;;;;;;5054538;28;20537;-83
2020/12/08 10:59:57;;;;;;;1999.90;999.90;;;;;;;;;;5054884;28;20060;-83
2020/12/08 11:02:23;;;;;;;1999.90;999.90;;;;;;;;;;5054712;28;20101;-82
2020/12/08 11:04:49;;;;;;;1999.90;999.90;;;;;;;;;;5054839;28;20036;-82
2020/12/08 11:07:15;;;;;;;1999.90;999.90;;;;;;;;;;5057501;28;20021;-80
2020/12/08 11:09:43;;;;;;;1999.90;999.90;;;;;;;;;;5050128;28;20515;-84
2020/12/08 11:12:09;;;;;;;1999.90;999.90;;;;;;;;;;5041867;28;20377;-84
2020/12/08 11:14:35;;;;;;;1999.90;999.90;;;;;;;;;;5054513;28;20025;-83
2020/12/08 11:17:01;;;;;;;1999.90;999.90;;;;;;;;;;5053387;28;20040;-81
2020/12/08 11:19:27;;;;;;;1999.90;999.90;;;;;;;;;;5054251;28;20032;-82
2020/12/08 11:21:53;;;;;;;1999.90;999.90;;;;;;;;;;5054080;28;20017;-84
2020/12/08 11:24:19;;;;;;;1999.90;999.90;;;;;;;;;;5054742;28;20484;-83
2020/12/08 11:26:45;;;;;;;1999.90;999.90;;;;;;;;;;5054570;28;20029;-83
2020/12/08 11:29:12;;;;;;;1999.90;999.90;;;;;;;;;;5036390;28;20024;-83
2020/12/08 11:31:38;;;;;;;1999.90;999.90;;;;;;;;;;5050484;28;20390;-84
2020/12/08 11:34:04;;;;;;;1999.90;999.90;;;;;;;;;;5034336;28;20079;-84
2020/12/08 11:36:30;;;;;;;1999.90;999.90;;;;;;;;;;5043667;28;20501;-84
2020/12/08 11:38:56;;;;;;;1999.90;999.90;;;;;;;;;;5053162;28;20053;-83
2020/12/08 11:41:22;;;;;;;1999.90;999.90;;;;;;;;;;5038978;28;20025;-84
2020/12/08 11:43:48;;;;;;;1999.90;999.90;;;;;;;;;;5055139;28;20029;-83
2020/12/08 11:46:14;;;;;;;1999.90;999.90;;;;;;;;;;5055376;28;20070;-84
2020/12/08 11:48:41;;;;;;;1999.90;999.90;;;;;;;;;;5053106;28;20021;-84
2020/12/08 11:51:07;;;;;;;1999.90;999.90;;;;;;;;;;5052756;28;20021;-85
2020/12/08 11:53:33;;;;;;;1999.90;999.90;;;;;;;;;;5036844;28;20100;-85
2020/12/08 11:55:59;;;;;;;1999.90;999.90;;;;;;;;;;5053068;28;20021;-85
2020/12/08 11:58:25;;;;;;;1999.90;999.90;;;;;;;;;;5052313;28;20021;-78
2020/12/08 12:00:51;;;;;;;1999.90;999.90;;;;;;;;;;5051127;28;20064;-88
2020/12/08 12:03:17;;;;;;;1999.90;999.90;;;;;;;;;;5053032;28;20087;-84
2020/12/08 12:05:43;;;;;;;1999.90;999.90;;;;;;;;;;5036235;28;20025;-85
2020/12/08 12:08:09;;;;;;;1999.90;999.90;;;;;;;;;;5053385;28;20036;-84
2020/12/08 12:10:35;;;;;;;1999.90;999.90;;;;;;;;;;5053060;28;20036;-84
2020/12/08 12:13:01;;;;;;;1999.90;999.90;;;;;;;;;;5055990;28;20053;-88
2020/12/08 12:15:27;;;;;;;1999.90;999.90;;;;;;;;;;5055823;28;20029;-90
2020/12/08 12:17:53;;;;;;;1999.90;999.90;;;;;;;;;;5055470;28;20031;-87
2020/12/08 12:20:20;;;;;;;1999.90;999.90;;;;;;;;;;5056054;28;20048;-88
2020/12/08 12:22:46;;;;;;;1999.90;999.90;;;;;;;;;;5045568;28;20033;-89
2020/12/08 12:25:12;;;;;;;1999.90;999.90;;;;;;;;;;5057970;28;20025;-87
2020/12/08 12:27:38;;;;;;;1999.90;999.90;;;;;;;;;;5054924;28;20044;-87
2020/12/08 12:30:04;;;;;;;1999.90;999.90;;;;;;;;;;5054853;28;20438;-89
2020/12/08 12:32:30;;;;;;;1999.90;999.90;;;;;;;;;;5048087;28;20031;-89
2020/12/08 12:34:56;;;;;;;1999.90;999.90;;;;;;;;;;5035588;28;20508;-89
2020/12/08 12:37:24;;;;;;;1999.90;999.90;;;;;;;;;;5054705;28;20103;-87
2020/12/08 12:39:50;;;;;;;1999.90;999.90;;;;;;;;;;5032633;28;20536;-87
2020/12/08 12:42:18;;;;;;;1999.90;999.90;;;;;;;;;;5024493;28;20025;-89
2020/12/08 12:44:44;;;;;;;1999.90;999.90;;;;;;;;;;5055392;28;20032;-88
2020/12/08 12:47:10;;;;;;;1999.90;999.90;;;;;;;;;;5055979;28;20096;-89
2020/12/08 12:49:36;;;;;;;1999.90;999.90;;;;;;;;;;5055084;28;20120;-89
2020/12/08 12:52:02;;;;;;;1999.90;999.90;;;;;;;;;;5035344;28;20016;-87
2020/12/08 12:54:28;;;;;;;1999.90;999.90;;;;;;;;;;5053413;28;20031;-87
2020/12/08 12:56:54;;;;;;;1999.90;999.90;;;;;;;;;;5053768;28;20025;-88
2020/12/08 12:59:20;;;;;;;1999.90;999.90;;;;;;;;;;5054415;28;20021;-87
2020/12/08 13:01:46;;;;;;;1999.90;999.90;;;;;;;;;;5056150;28;20033;-88
2020/12/08 13:04:12;;;;;;;1999.90;999.90;;;;;;;;;;5055479;28;20066;-87
2020/12/08 13:06:38;;;;;;;1999.90;999.90;;;;;;;;;;5053155;28;20017;-86
2020/12/08 13:09:05;;;;;;;1999.90;999.90;;;;;;;;;;5052769;28;20024;-87
2020/12/08 13:11:31;;;;;;;1999.90;999.90;;;;;;;;;;5052814;28;20040;-86
2020/12/08 13:13:57;;;;;;;1999.90;999.90;;;;;;;;;;5048828;28;20029;-88
2020/12/08 13:16:23;;;;;;;1999.90;999.90;;;;;;;;;;5036587;28;20029;-88
2020/12/08 13:18:49;;;;;;;1999.90;999.90;;;;;;;;;;5045067;28;20075;-87
2020/12/08 13:21:17;;;;;;;1999.90;999.90;;;;;;;;;;5052327;28;20021;-89
2020/12/08 13:23:43;;;;;;;1999.90;999.90;;;;;;;;;;5047678;28;20021;-88
2020/12/08 13:26:09;;;;;;;1999.90;999.90;;;;;;;;;;5039143;28;20028;-88
2020/12/08 13:28:36;;;;;;;1999.90;999.90;;;;;;;;;;5050228;28;20037;-85
2020/12/08 13:31:05;;;;;;;1999.90;999.90;;;;;;;;;;5053861;28;20072;-87
2020/12/08 13:33:32;;;;;;;1999.90;999.90;;;;;;;;;;5036846;28;20422;-88
2020/12/08 13:35:58;;;;;;;1999.90;999.90;;;;;;;;;;5053269;28;20025;-88
2020/12/08 13:38:25;;;;;;;1999.90;999.90;;;;;;;;;;5053343;28;20063;-87